Athens, Indiana
Current Conditions -  °F | °C
As of 8:55 PM on Sunday 21 Dec 2014 (Local Time) from KRCR Reporting Station
Haze Haze  
Wind Chill: -3°   Ceiling: Unl
Heat Index:   Visibility: 5mi
Dew Point: -1°   Wind: 8mph
Humidity: 87%   Direction: 130°SE
Pressure: 30.13"   Gusts: NA
Location:  41.05°N, 86.13°W
Report Text: KRCR 220155Z AUTO 13007KT 5SM BR CLR 01/M01 A3013 RMK AO2
Loading
Personal Weather Stations






























Interactive Weather Map New forecast layout! Learn more

10-Day Weather Forecast

Advertisements
Track Severe Weather on mobile